Time;durP1;ratioP1;P1;durP2;ratioP2;P2;SDS_P1;SDS_P2;PMS_P1;PMS_P2;Temp;Humidity;BMP_temperature;BMP_pressure;BME280_temperature;BME280_humidity;BME280_pressure;Samples;Min_cycle;Max_cycle;Signal;HPM_P1;HPM_P2
2023/04/02 00:02:31;;;;;;;2.70;2.60;;;;;;;10.80;75.16;98577.13;5075870;28;20265;-74
2023/04/02 00:05:30;;;;;;;2.43;2.33;;;;;;;10.76;75.26;98581.25;5075310;28;20274;-74
2023/04/02 00:07:59;;;;;;;2.37;2.27;;;;;;;10.81;75.28;98582.22;5054876;28;20279;-74
2023/04/02 00:10:29;;;;;;;2.40;2.30;;;;;;;10.52;75.97;98571.47;5069835;28;20662;-74
2023/04/02 00:13:03;;;;;;;3.20;2.70;;;;;;;10.47;76.17;98566.00;5055868;28;20278;-74
2023/04/02 00:15:31;;;;;;;2.97;2.77;;;;;;;10.32;76.65;98566.34;5055481;28;20258;-73
2023/04/02 00:17:58;;;;;;;2.90;2.70;;;;;;;10.28;76.94;98561.66;5055140;28;20698;-73
2023/04/02 00:20:27;;;;;;;3.17;2.97;;;;;;;10.27;76.68;98560.88;5055356;28;20193;-74
2023/04/02 00:22:55;;;;;;;3.07;2.87;;;;;;;10.22;77.02;98570.50;5055448;28;20247;-74
2023/04/02 00:25:22;;;;;;;2.70;2.50;;;;;;;10.16;77.03;98563.38;5060679;28;20244;-74
2023/04/02 00:27:50;;;;;;;3.00;2.83;;;;;;;10.15;77.27;98575.03;5075369;28;20293;-74
2023/04/02 00:30:18;;;;;;;3.03;2.83;;;;;;;10.13;77.38;98569.94;5075162;28;20196;-73
2023/04/02 00:32:46;;;;;;;2.57;2.47;;;;;;;9.97;77.62;98564.34;5074884;28;20733;-73
2023/04/02 00:35:19;;;;;;;2.90;2.80;;;;;;;10.04;77.55;98571.22;5074953;28;20204;-73
2023/04/02 00:37:46;;;;;;;3.00;2.80;;;;;;;10.03;77.65;98568.78;5075456;28;20184;-74
2023/04/02 00:40:19;;;;;;;2.93;2.73;;;;;;;10.10;77.93;98573.03;5072315;28;20222;-75
2023/04/02 00:42:48;;;;;;;3.20;2.97;;;;;;;10.15;77.96;98572.38;5074409;28;20180;-75
2023/04/02 00:45:23;;;;;;;2.30;2.20;;;;;;;10.14;78.56;98571.56;5074837;28;20217;-74
2023/04/02 00:47:50;;;;;;;3.17;2.97;;;;;;;10.00;78.63;98572.66;5074645;28;20675;-74
2023/04/02 00:50:27;;;;;;;3.17;2.90;;;;;;;9.96;78.85;98575.94;5074455;28;20191;-74
2023/04/02 00:52:57;;;;;;;2.97;2.77;;;;;;;9.86;79.35;98575.63;5074645;28;20610;-73
2023/04/02 00:55:27;;;;;;;2.87;2.67;;;;;;;9.86;79.06;98572.97;5074794;28;20214;-74
2023/04/02 00:57:55;;;;;;;2.40;2.30;;;;;;;9.92;78.58;98572.09;5073255;28;20225;-73
2023/04/02 01:00:29;;;;;;;2.90;2.70;;;;;;;9.98;78.20;98577.38;5074301;28;20188;-73
2023/04/02 01:03:28;;;;;;;3.00;2.80;;;;;;;10.16;78.47;98576.66;5074772;28;20188;-74
2023/04/02 01:06:00;;;;;;;6.17;2.87;;;;;;;10.15;77.66;98569.72;5072875;28;20312;-74
2023/04/02 01:08:35;;;;;;;3.20;2.97;;;;;;;10.28;77.42;98582.91;5073999;28;20662;-74
2023/04/02 01:11:07;;;;;;;3.23;3.03;;;;;;;10.38;77.20;98584.03;5074042;28;20184;-72
2023/04/02 01:13:40;;;;;;;2.70;2.60;;;;;;;10.50;76.38;98586.81;5074215;28;20196;-73
2023/04/02 01:16:16;;;;;;;2.70;2.50;;;;;;;10.52;76.55;98590.06;5074350;28;20219;-73
2023/04/02 01:18:55;;;;;;;2.43;2.33;;;;;;;10.33;76.87;98596.31;5074620;28;20183;-74
2023/04/02 01:21:35;;;;;;;2.40;2.30;;;;;;;10.24;76.75;98589.66;5073938;28;20654;-73
2023/04/02 01:24:04;;;;;;;2.77;2.50;;;;;;;10.22;76.30;98594.38;5074296;28;20194;-73
2023/04/02 01:26:52;;;;;;;2.30;2.20;;;;;;;10.26;77.34;98600.91;5073418;28;20307;-73
2023/04/02 01:29:23;;;;;;;2.77;2.67;;;;;;;10.10;77.44;98590.81;5074129;28;20261;-73
2023/04/02 01:31:53;;;;;;;2.40;2.30;;;;;;;10.00;76.71;98595.72;5073754;28;20641;-72
2023/04/02 01:34:23;;;;;;;2.63;2.43;;;;;;;10.07;76.77;98583.25;5074064;28;20241;-72
2023/04/02 01:37:03;;;;;;;2.50;2.40;;;;;;;10.09;76.11;98592.63;5070622;28;20192;-72
2023/04/02 01:39:50;;;;;;;3.00;2.90;;;;;;;10.02;76.23;98588.38;5073996;28;20241;-73
2023/04/02 01:42:21;;;;;;;2.87;2.70;;;;;;;10.03;76.60;98590.00;5073812;28;20199;-72
2023/04/02 01:44:51;;;;;;;2.57;2.47;;;;;;;10.03;76.89;98590.00;5073591;28;20588;-72
2023/04/02 01:47:21;;;;;;;2.50;2.40;;;;;;;9.97;76.97;98590.88;5073684;28;20191;-73
2023/04/02 01:49:48;;;;;;;2.47;2.10;;;;;;;9.77;76.64;98574.25;5074052;28;20184;-73
2023/04/02 01:52:19;;;;;;;2.33;2.23;;;;;;;9.82;77.48;98593.00;5073571;28;20273;-73
2023/04/02 01:54:47;;;;;;;2.00;1.90;;;;;;;9.86;77.34;98594.19;5073950;28;20198;-73
2023/04/02 01:57:15;;;;;;;2.40;2.30;;;;;;;9.85;76.84;98588.06;5073221;28;20613;-73
2023/04/02 01:59:42;;;;;;;1.90;1.90;;;;;;;9.95;76.68;98598.19;5073239;28;20242;-73
2023/04/02 02:02:12;;;;;;;2.37;1.87;;;;;;;9.95;76.24;98587.59;5073065;28;20629;-74
2023/04/02 02:04:40;;;;;;;2.20;2.10;;;;;;;10.05;75.79;98598.59;5072742;28;20225;-76
2023/04/02 02:07:14;;;;;;;5.23;2.50;;;;;;;10.20;75.58;98596.44;5071748;28;20196;-74
2023/04/02 02:09:42;;;;;;;1.83;1.73;;;;;;;10.04;75.92;98586.31;5073665;28;20216;-73
2023/04/02 02:12:12;;;;;;;1.87;1.77;;;;;;;10.00;76.58;98585.09;5073129;28;20262;-74
2023/04/02 02:14:39;;;;;;;2.30;2.10;;;;;;;9.97;76.49;98586.34;5059695;28;20569;-75
2023/04/02 02:17:12;;;;;;;1.80;1.70;;;;;;;9.94;76.31;98581.50;5052891;28;20189;-75
2023/04/02 02:19:44;;;;;;;1.70;1.60;;;;;;;9.83;76.88;98578.69;5053404;28;20197;-75
2023/04/02 02:22:17;;;;;;;3.30;1.80;;;;;;;9.83;77.56;98576.88;5052392;28;20238;-75
2023/04/02 02:24:44;;;;;;;1.77;1.70;;;;;;;9.75;77.82;98568.34;5053741;28;20199;-75
2023/04/02 02:27:55;;;;;;;2.03;1.73;;;;;;;9.68;77.92;98557.78;5072802;28;20769;-76
2023/04/02 02:30:27;;;;;;;1.83;1.80;;;;;;;9.68;78.63;98547.16;5073081;28;20191;-76
2023/04/02 02:33:01;;;;;;;1.80;1.70;;;;;;;9.67;77.92;98552.69;5073026;28;20184;-74
2023/04/02 02:35:36;;;;;;;1.50;1.50;;;;;;;9.75;77.89;98555.06;5071597;28;20222;-74
2023/04/02 02:38:27;;;;;;;1.80;1.80;;;;;;;9.84;77.47;98554.63;5072745;28;20187;-74
2023/04/02 02:41:00;;;;;;;1.70;1.70;;;;;;;9.91;77.81;98554.56;5071695;28;20196;-73
2023/04/02 02:43:28;;;;;;;2.07;1.97;;;;;;;9.83;78.56;98568.09;5072302;28;20188;-73
2023/04/02 02:45:57;;;;;;;1.97;1.87;;;;;;;9.91;77.46;98565.19;5072534;28;20220;-74
2023/04/02 02:48:28;;;;;;;2.00;2.00;;;;;;;9.87;78.89;98566.63;5072146;28;20197;-75
2023/04/02 02:50:57;;;;;;;2.03;1.87;;;;;;;9.81;78.78;98563.00;5072340;28;20184;-73
2023/04/02 02:53:25;;;;;;;2.10;2.00;;;;;;;9.69;79.48;98556.72;5071816;28;20219;-73
2023/04/02 02:55:57;;;;;;;2.23;2.13;;;;;;;9.68;79.60;98557.78;5069848;28;20188;-73
2023/04/02 02:58:26;;;;;;;2.30;2.20;;;;;;;9.80;78.96;98557.94;5071700;28;20543;-74
2023/04/02 03:00:53;;;;;;;2.00;1.90;;;;;;;9.77;79.13;98548.53;5069317;28;20551;-75
2023/04/02 03:03:24;;;;;;;1.83;1.83;;;;;;;9.88;79.14;98565.59;5071845;28;20200;-76
2023/04/02 03:05:55;;;;;;;4.27;2.00;;;;;;;9.91;79.15;98566.00;5067685;28;20757;-73
2023/04/02 03:08:30;;;;;;;2.17;2.07;;;;;;;9.88;79.38;98562.94;5071508;28;20183;-72
2023/04/02 03:11:02;;;;;;;1.60;1.60;;;;;;;9.89;80.12;98564.59;5070031;28;20183;-72
2023/04/02 03:13:34;;;;;;;1.70;1.70;;;;;;;9.97;79.04;98569.63;5067606;28;20330;-74
2023/04/02 03:16:07;;;;;;;2.20;2.10;;;;;;;10.02;79.40;98572.47;5071925;28;20192;-76
2023/04/02 03:18:42;;;;;;;2.43;2.33;;;;;;;10.08;78.85;98577.75;5069163;28;20703;-74
2023/04/02 03:21:18;;;;;;;2.40;2.30;;;;;;;10.09;78.66;98573.25;5071614;28;20245;-75
2023/04/02 03:23:51;;;;;;;2.00;1.90;;;;;;;10.15;78.82;98588.31;5071344;28;20253;-72
2023/04/02 03:26:22;;;;;;;2.10;2.00;;;;;;;10.05;78.90;98572.06;5071075;28;20693;-73
2023/04/02 03:28:57;;;;;;;1.97;1.87;;;;;;;9.95;79.20;98575.16;5071261;28;20641;-73
2023/04/02 03:31:28;;;;;;;2.70;2.17;;;;;;;9.96;79.57;98583.91;5071241;28;20188;-74
2023/04/02 03:33:58;;;;;;;2.30;2.20;;;;;;;9.98;79.12;98588.00;5068736;28;20282;-73
2023/04/02 03:36:30;;;;;;;2.20;2.03;;;;;;;9.98;79.16;98584.53;5067891;28;20192;-74
2023/04/02 03:39:08;;;;;;;2.27;2.17;;;;;;;10.01;79.34;98602.66;5071206;28;20618;-75
2023/04/02 03:41:43;;;;;;;14.43;9.60;;;;;;;10.04;79.52;98596.91;5068379;28;20645;-74
2023/04/02 03:44:21;;;;;;;7.57;6.13;;;;;;;10.12;79.77;98599.34;5067828;28;20229;-75
2023/04/02 03:46:56;;;;;;;5.37;3.47;;;;;;;10.24;79.34;98602.94;5071398;28;20200;-75
2023/04/02 03:49:28;;;;;;;2.60;2.40;;;;;;;10.25;79.76;98612.53;5071526;28;20187;-75
2023/04/02 03:52:00;;;;;;;2.43;2.33;;;;;;;10.20;79.69;98607.88;5069502;28;20245;-75
2023/04/02 03:54:28;;;;;;;2.27;2.17;;;;;;;10.35;79.19;98611.03;5071331;28;20233;-74
2023/04/02 03:56:56;;;;;;;8.13;2.87;;;;;;;10.41;78.69;98614.63;5071087;28;20199;-74
2023/04/02 03:59:30;;;;;;;2.60;2.10;;;;;;;10.46;79.24;98606.88;5071253;28;20200;-75
2023/04/02 04:02:01;;;;;;;3.30;2.43;;;;;;;10.44;78.80;98603.59;5070004;28;20183;-74
2023/04/02 04:04:31;;;;;;;3.13;2.57;;;;;;;10.37;78.97;98610.78;5070731;28;20562;-74
2023/04/02 04:07:00;;;;;;;2.60;2.50;;;;;;;10.33;79.00;98612.25;5070888;28;20196;-74
2023/04/02 04:09:32;;;;;;;2.43;2.20;;;;;;;10.14;78.89;98592.00;5070798;28;20189;-74
2023/04/02 04:12:14;;;;;;;2.70;2.53;;;;;;;9.98;80.24;98595.13;5068011;28;20230;-74
2023/04/02 04:14:46;;;;;;;2.80;2.63;;;;;;;9.88;79.93;98586.81;5067064;28;20555;-75
2023/04/02 04:17:22;;;;;;;6.27;2.40;;;;;;;9.84;81.16;98590.91;5068685;28;20237;-74
2023/04/02 04:19:54;;;;;;;2.67;2.37;;;;;;;9.96;80.87;98602.47;5071330;28;20185;-74
2023/04/02 04:22:28;;;;;;;3.80;2.87;;;;;;;10.00;80.60;98595.72;5071159;28;20192;-74
2023/04/02 04:24:57;;;;;;;3.27;2.50;;;;;;;10.15;80.05;98609.53;5070723;28;20180;-74
2023/04/02 04:27:32;;;;;;;6.70;3.27;;;;;;;10.28;79.63;98609.44;5071012;28;20235;-74
2023/04/02 04:30:04;;;;;;;2.43;2.27;;;;;;;10.33;79.07;98623.69;5069459;28;20214;-73
2023/04/02 04:32:37;;;;;;;4.03;2.10;;;;;;;10.44;79.11;98635.47;5068076;28;20616;-73
2023/04/02 04:35:15;;;;;;;3.17;2.13;;;;;;;10.52;78.59;98627.22;5070708;28;20573;-73
2023/04/02 04:37:48;;;;;;;2.57;2.40;;;;;;;10.48;78.43;98626.03;5069625;28;20331;-73
2023/04/02 04:40:22;;;;;;;2.10;2.00;;;;;;;10.53;78.23;98631.50;5068401;28;20195;-73
2023/04/02 04:42:53;;;;;;;3.57;2.23;;;;;;;10.66;78.24;98631.41;5068025;28;20209;-73
2023/04/02 04:45:40;;;;;;;2.63;2.00;;;;;;;10.69;77.20;98623.81;5074351;28;20180;-71
2023/04/02 04:48:13;;;;;;;1.90;1.70;;;;;;;10.64;77.28;98615.69;5073914;28;20661;-75
2023/04/02 04:50:47;;;;;;;3.43;2.10;;;;;;;10.69;76.17;98623.00;5074167;28;20242;-74
2023/04/02 04:53:17;;;;;;;2.53;2.30;;;;;;;10.63;76.49;98613.25;5071708;28;20183;-75
2023/04/02 04:55:47;;;;;;;2.40;2.30;;;;;;;10.55;76.94;98613.53;5074225;28;20197;-75
2023/04/02 04:58:21;;;;;;;2.80;2.00;;;;;;;10.44;76.89;98619.53;5071971;28;20191;-75
2023/04/02 05:00:58;;;;;;;2.20;2.10;;;;;;;10.44;76.80;98619.53;5074227;28;20199;-77
2023/04/02 05:03:31;;;;;;;2.40;2.30;;;;;;;10.47;76.68;98625.19;5073901;28;20270;-72
2023/04/02 05:06:08;;;;;;;3.40;2.20;;;;;;;10.59;76.03;98633.31;5073057;28;20747;-73
2023/04/02 05:08:41;;;;;;;2.13;2.03;;;;;;;10.63;75.17;98622.00;5073969;28;20265;-73
2023/04/02 05:11:14;;;;;;;9.07;2.90;;;;;;;10.78;75.69;98627.00;5074459;28;20267;-70
2023/04/02 05:13:47;;;;;;;10.23;4.53;;;;;;;10.98;75.12;98640.91;5071464;28;20193;-69
2023/04/02 05:16:18;;;;;;;122.97;24.43;;;;;;;11.11;74.09;98643.44;5073752;28;20208;-71
2023/04/02 05:18:51;;;;;;;18.10;11.07;;;;;;;11.25;73.77;98650.25;5073819;28;20674;-71
2023/04/02 05:21:23;;;;;;;12.77;6.47;;;;;;;11.39;72.94;98656.25;5073782;28;20215;-66
2023/04/02 05:23:56;;;;;;;7.13;5.77;;;;;;;11.48;72.70;98653.06;5073726;28;20272;-66
2023/04/02 05:26:29;;;;;;;4.73;4.43;;;;;;;11.62;72.63;98659.88;5073400;28;20258;-66
2023/04/02 05:29:01;;;;;;;9.03;7.13;;;;;;;11.77;71.82;98660.31;5073630;28;20189;-66
2023/04/02 05:31:35;;;;;;;7.93;6.17;;;;;;;11.88;71.97;98656.88;5073709;28;20189;-67
2023/04/02 05:34:02;;;;;;;90.03;12.67;;;;;;;12.03;71.42;98664.47;5073899;28;20182;-68
2023/04/02 05:36:31;;;;;;;21.03;6.47;;;;;;;12.15;71.06;98666.16;5073814;28;20204;-68
2023/04/02 05:38:59;;;;;;;10.33;6.67;;;;;;;12.26;70.07;98673.38;5073890;28;20194;-66
2023/04/02 05:41:30;;;;;;;18.37;13.23;;;;;;;12.41;69.97;98665.75;5071956;28;20198;-65
2023/04/02 05:44:06;;;;;;;13.03;11.80;;;;;;;12.66;70.00;98677.06;5053301;28;20194;-66
2023/04/02 05:46:37;;;;;;;11.73;7.30;;;;;;;12.99;68.35;98676.56;5053516;28;20262;-68
2023/04/02 05:49:08;;;;;;;5.50;5.10;;;;;;;13.32;67.39;98671.44;5053609;28;20274;-76
2023/04/02 05:51:41;;;;;;;5.40;3.63;;;;;;;13.69;65.52;98678.91;5053771;28;20648;-76
2023/04/02 05:54:22;;;;;;;4.43;3.70;;;;;;;14.29;70.22;98653.44;5052110;28;20620;-69
2023/04/02 05:56:53;;;;;;;6.27;4.73;;;;;;;14.65;62.90;98686.94;5052784;28;20666;-68
2023/04/02 05:59:25;;;;;;;3.97;2.60;;;;;;;15.23;75.34;98658.72;5064852;28;20210;-69
2023/04/02 06:01:57;;;;;;;10.43;4.70;;;;;;;15.74;61.68;98685.16;5065085;28;20189;-75
2023/04/02 06:04:30;;;;;;;3.40;3.20;;;;;;;16.00;57.17;98704.22;5073028;28;20280;-77
2023/04/02 06:07:00;;;;;;;15.27;4.70;;;;;;;16.18;55.71;98719.97;5072859;28;20208;-73
2023/04/02 06:09:42;;;;;;;4.60;4.20;;;;;;;16.07;55.35;98710.19;5073384;28;20244;-71
2023/04/02 06:12:19;;;;;;;2.50;2.40;;;;;;;15.96;55.14;98713.81;5051104;28;20196;-76
2023/04/02 06:14:46;;;;;;;5.30;3.93;;;;;;;16.11;54.31;98713.97;5053245;28;20654;-73
2023/04/02 06:17:15;;;;;;;7.63;6.93;;;;;;;15.98;53.97;98718.66;5053255;28;20266;-74
2023/04/02 06:19:42;;;;;;;8.90;5.63;;;;;;;15.51;55.15;98714.81;5052827;28;20228;-75
2023/04/02 06:22:18;;;;;;;7.77;6.40;;;;;;;15.36;56.67;98703.88;5053117;28;20250;-71
2023/04/02 06:24:50;;;;;;;6.00;4.67;;;;;;;15.28;56.70;98709.63;5053894;28;20247;-77
2023/04/02 06:27:21;;;;;;;9.67;6.97;;;;;;;15.29;56.95;98718.47;5072778;28;20285;-73
2023/04/02 06:29:51;;;;;;;4.00;3.67;;;;;;;15.44;64.54;98695.44;5055502;28;20224;-73
2023/04/02 06:32:22;;;;;;;4.97;4.00;;;;;;;15.44;56.43;98727.56;5051706;28;20188;-75
2023/04/02 06:34:50;;;;;;;9.33;6.97;;;;;;;15.18;57.23;98728.22;5052061;28;20185;-71
2023/04/02 06:37:23;;;;;;;6.43;5.83;;;;;;;14.99;57.98;98723.34;5052265;28;20215;-71
2023/04/02 06:39:50;;;;;;;8.00;3.47;;;;;;;14.91;57.39;98727.22;5052450;28;20188;-72
2023/04/02 06:42:21;;;;;;;6.60;3.27;;;;;;;14.78;57.26;98716.84;5051632;28;20655;-73
2023/04/02 06:44:49;;;;;;;4.67;2.90;;;;;;;14.72;56.18;98733.03;5052244;28;20561;-75
2023/04/02 06:47:24;;;;;;;3.60;3.30;;;;;;;14.71;56.52;98732.22;5052133;28;20232;-76
2023/04/02 06:49:54;;;;;;;5.83;3.30;;;;;;;14.77;56.11;98727.78;5052185;28;20192;-75
2023/04/02 06:52:25;;;;;;;3.70;3.50;;;;;;;14.94;56.35;98733.94;5051788;28;20205;-73
2023/04/02 06:54:52;;;;;;;2.73;2.53;;;;;;;14.99;54.72;98732.16;5051889;28;20234;-72
2023/04/02 06:57:20;;;;;;;4.63;2.30;;;;;;;14.75;54.83;98717.31;5051617;28;20196;-74
2023/04/02 06:59:47;;;;;;;2.80;2.10;;;;;;;14.85;55.64;98733.53;5053831;28;20201;-72
2023/04/02 07:02:27;;;;;;;3.90;3.50;;;;;;;14.93;55.59;98729.66;5050809;28;20552;-74
2023/04/02 07:04:58;;;;;;;2.00;1.90;;;;;;;15.02;55.40;98738.88;5065934;28;20192;-74
2023/04/02 07:07:25;;;;;;;2.60;1.43;;;;;;;15.03;55.65;98741.31;5070610;28;20219;-72
2023/04/02 07:09:52;;;;;;;5.37;1.90;;;;;;;14.95;55.75;98741.72;5071494;28;20200;-73
2023/04/02 07:12:23;;;;;;;1.70;1.60;;;;;;;15.10;55.12;98742.00;5070884;28;20200;-75
2023/04/02 07:14:50;;;;;;;1.80;1.70;;;;;;;15.20;53.81;98747.50;5071455;28;20190;-72
2023/04/02 07:17:17;;;;;;;1.60;1.47;;;;;;;15.30;52.26;98753.00;5071498;28;20245;-80
2023/04/02 07:19:48;;;;;;;15.00;2.57;;;;;;;15.36;51.90;98761.97;5071215;28;20191;-74
2023/04/02 07:22:14;;;;;;;15.27;2.50;;;;;;;15.41;52.41;98765.50;5070861;28;20653;-76
2023/04/02 07:24:41;;;;;;;2.07;1.97;;;;;;;15.58;51.40;98781.56;5070809;28;20199;-72
2023/04/02 07:27:10;;;;;;;2.10;1.90;;;;;;;15.68;51.25;98779.84;5070973;28;20243;-71
2023/04/02 07:29:41;;;;;;;3.70;2.93;;;;;;;15.74;51.68;98760.13;5056871;28;20226;-76
2023/04/02 07:32:08;;;;;;;10.90;3.00;;;;;;;15.94;50.87;98776.44;5050607;28;20720;-71
2023/04/02 07:34:35;;;;;;;2.43;2.20;;;;;;;16.08;50.57;98781.47;5051465;28;20616;-75
2023/04/02 07:37:02;;;;;;;4.27;2.20;;;;;;;16.14;50.32;98777.78;5057830;28;20716;-74
2023/04/02 07:39:29;;;;;;;3.23;2.03;;;;;;;16.19;49.64;98767.13;5071345;28;20665;-70
2023/04/02 07:41:57;;;;;;;4.27;2.40;;;;;;;16.55;49.14;98783.41;5071099;28;20200;-74
2023/04/02 07:44:24;;;;;;;2.17;1.97;;;;;;;16.92;47.73;98767.44;5070893;28;20249;-72
2023/04/02 07:46:53;;;;;;;2.37;2.27;;;;;;;17.27;46.92;98759.69;5070660;28;20705;-73
2023/04/02 07:49:20;;;;;;;4.70;1.87;;;;;;;17.58;46.36;98756.19;5070759;28;20192;-73
2023/04/02 07:51:46;;;;;;;3.57;1.93;;;;;;;17.86;45.17;98753.97;5070490;28;20194;-77
2023/04/02 07:54:13;;;;;;;4.30;2.27;;;;;;;17.98;44.71;98741.13;5071128;28;20192;-76
2023/04/02 07:56:40;;;;;;;2.67;2.10;;;;;;;18.51;43.07;98740.81;5070710;28;20199;-77
2023/04/02 07:59:07;;;;;;;1.90;1.80;;;;;;;18.82;41.90;98736.28;5060413;28;20193;-84
2023/04/02 08:01:34;;;;;;;3.60;1.83;;;;;;;18.87;41.68;98734.41;5064649;28;20586;-83
2023/04/02 08:04:04;;;;;;;1.80;1.70;;;;;;;19.00;41.43;98730.41;5070816;28;20193;-82
2023/04/02 08:06:31;;;;;;;2.07;1.90;;;;;;;19.16;40.77;98737.41;5068478;28;20257;-83
2023/04/02 08:08:58;;;;;;;1.60;1.50;;;;;;;19.37;40.12;98739.84;5070824;28;20282;-82
2023/04/02 08:11:25;;;;;;;1.43;1.10;;;;;;;19.70;37.95;98739.25;5070824;28;20621;-85
2023/04/02 08:13:52;;;;;;;1.30;1.20;;;;;;;19.80;37.21;98741.09;5070907;28;20198;-81
2023/04/02 08:16:18;;;;;;;10.43;1.90;;;;;;;19.61;37.84;98742.78;5067231;28;20230;-72
2023/04/02 08:18:46;;;;;;;3.13;2.93;;;;;;;19.43;36.32;98738.75;5071913;28;20254;-74
2023/04/02 08:21:14;;;;;;;14.20;5.33;;;;;;;19.28;36.71;98735.28;5074957;28;20198;-75
2023/04/02 08:23:41;;;;;;;4.73;3.10;;;;;;;19.39;37.33;98735.00;5075291;28;20246;-74
2023/04/02 08:26:08;;;;;;;2.93;1.97;;;;;;;19.50;37.08;98733.91;5074494;28;20200;-74
2023/04/02 08:28:35;;;;;;;1.40;1.30;;;;;;;19.51;35.58;98723.91;5072225;28;20239;-73
2023/04/02 08:31:03;;;;;;;2.20;2.10;;;;;;;19.86;35.92;98721.16;5073599;28;20233;-73
2023/04/02 08:33:30;;;;;;;2.30;1.50;;;;;;;20.24;34.71;98724.00;5074144;28;20570;-74
2023/04/02 08:35:57;;;;;;;1.33;1.30;;;;;;;20.37;34.73;98733.38;5073937;28;20219;-73
2023/04/02 08:38:25;;;;;;;0.93;0.93;;;;;;;20.14;34.21;98723.25;5074257;28;20203;-72
2023/04/02 08:40:53;;;;;;;1.10;1.10;;;;;;;20.21;34.92;98702.16;5073842;28;20191;-73
2023/04/02 08:43:40;;;;;;;2.00;1.60;;;;;;;20.69;34.95;98722.94;5073298;28;20668;-72
2023/04/02 08:46:14;;;;;;;1.87;0.97;;;;;;;21.09;33.44;98721.88;5074235;28;20194;-73
2023/04/02 08:48:44;;;;;;;1.20;1.20;;;;;;;21.23;33.11;98723.63;5074766;28;20289;-73
2023/04/02 08:51:22;;;;;;;1.87;1.50;;;;;;;21.35;36.17;98710.56;5074391;28;20188;-73
2023/04/02 08:53:51;;;;;;;2.23;1.40;;;;;;;21.63;33.25;98714.34;5074211;28;20233;-73
2023/04/02 08:56:24;;;;;;;1.40;1.30;;;;;;;21.77;32.90;98716.16;5073869;28;20196;-75
2023/04/02 08:58:54;;;;;;;1.03;1.03;;;;;;;21.68;32.62;98708.91;5066721;28;20193;-73
2023/04/02 09:01:36;;;;;;;1.03;1.03;;;;;;;21.58;32.10;98701.72;5052661;28;20272;-73
2023/04/02 09:04:06;;;;;;;1.27;1.20;;;;;;;21.49;31.65;98708.84;5053557;28;20192;-72
2023/04/02 09:06:34;;;;;;;2.73;1.07;;;;;;;21.58;31.83;98703.59;5053318;28;20247;-70
2023/04/02 09:09:03;;;;;;;0.80;0.80;;;;;;;21.57;30.79;98700.09;5053682;28;20299;-69
2023/04/02 09:11:36;;;;;;;1.43;1.07;;;;;;;21.84;30.47;98700.38;5071245;28;20196;-70
2023/04/02 09:14:06;;;;;;;1.00;1.00;;;;;;;22.10;29.17;98692.75;5073643;28;20625;-70
2023/04/02 09:16:43;;;;;;;0.90;0.60;;;;;;;22.04;29.43;98689.31;5073754;28;20666;-68
2023/04/02 09:19:20;;;;;;;3.57;1.00;;;;;;;22.26;29.39;98686.84;5060859;28;20250;-69
2023/04/02 09:21:59;;;;;;;0.70;0.70;;;;;;;22.53;28.98;98687.06;5053058;28;20204;-70
2023/04/02 09:24:27;;;;;;;0.80;0.80;;;;;;;22.80;29.13;98691.81;5053481;28;20187;-69
2023/04/02 09:26:54;;;;;;;2.80;1.10;;;;;;;22.42;29.15;98685.53;5071616;28;20397;-70
2023/04/02 09:29:39;;;;;;;5.03;1.10;;;;;;;22.39;29.82;98672.63;5072563;28;20214;-69
2023/04/02 09:32:18;;;;;;;2.30;1.00;;;;;;;22.80;29.95;98678.25;5073547;28;20259;-70
2023/04/02 09:34:45;;;;;;;1.00;1.00;;;;;;;23.05;28.90;98672.44;5073576;28;20190;-69
2023/04/02 09:37:17;;;;;;;1.63;1.53;;;;;;;22.97;29.49;98675.81;5073715;28;20228;-70
2023/04/02 09:39:45;;;;;;;3.23;1.20;;;;;;;23.17;28.78;98668.16;5072702;28;20587;-69
2023/04/02 09:42:32;;;;;;;1.17;1.07;;;;;;;23.21;28.25;98671.94;5073076;28;20199;-69
2023/04/02 09:45:14;;;;;;;1.27;1.20;;;;;;;22.99;29.04;98649.25;5073329;28;20620;-69
2023/04/02 09:47:41;;;;;;;7.20;1.97;;;;;;;23.29;28.63;98660.41;5072103;28;20207;-70
2023/04/02 09:50:24;;;;;;;0.90;0.90;;;;;;;23.01;28.40;98650.56;5073081;28;20354;-69
2023/04/02 09:52:51;;;;;;;0.70;0.70;;;;;;;22.56;27.80;98653.19;5073198;28;20235;-70
2023/04/02 09:55:23;;;;;;;0.90;0.90;;;;;;;22.54;28.46;98656.16;5073130;28;20201;-69
2023/04/02 09:57:52;;;;;;;9.50;1.20;;;;;;;22.90;28.72;98638.28;5073498;28;20191;-69
2023/04/02 10:00:22;;;;;;;1.57;1.03;;;;;;;22.99;28.03;98647.31;5073134;28;20362;-70
2023/04/02 10:03:02;;;;;;;3.53;0.80;;;;;;;22.92;26.34;98656.94;5073260;28;20267;-69
2023/04/02 10:05:30;;;;;;;0.83;0.77;;;;;;;23.00;26.45;98648.97;5073339;28;20272;-69
2023/04/02 10:08:08;;;;;;;1.97;0.80;;;;;;;23.38;26.28;98649.66;5069099;28;20414;-69
2023/04/02 10:10:42;;;;;;;2.00;1.17;;;;;;;23.55;26.20;98644.44;5053524;28;20247;-69
2023/04/02 10:13:20;;;;;;;0.70;0.70;;;;;;;23.54;24.33;98635.53;5052855;28;20277;-69
2023/04/02 10:15:53;;;;;;;0.70;0.70;;;;;;;23.64;24.51;98626.41;5053096;28;20678;-69
2023/04/02 10:18:28;;;;;;;0.70;0.70;;;;;;;23.55;25.03;98629.00;5052893;28;20715;-70
2023/04/02 10:20:57;;;;;;;1.47;0.67;;;;;;;23.04;25.17;98628.31;5052888;28;20621;-69
2023/04/02 10:23:26;;;;;;;1.03;0.87;;;;;;;23.00;25.62;98624.56;5052798;28;20198;-69
2023/04/02 10:26:00;;;;;;;3.27;1.30;;;;;;;22.59;26.19;98620.13;5062742;28;20631;-69
2023/04/02 10:28:41;;;;;;;7.73;1.13;;;;;;;22.80;25.86;98624.91;5073119;28;20689;-69
2023/04/02 10:31:16;;;;;;;0.53;0.53;;;;;;;22.90;26.07;98624.72;5072797;28;20716;-69
2023/04/02 10:33:50;;;;;;;1.13;0.73;;;;;;;23.09;25.02;98625.50;5072672;28;20661;-69
2023/04/02 10:36:29;;;;;;;1.23;0.70;;;;;;;23.32;25.26;98621.06;5072958;28;20188;-69
2023/04/02 10:39:02;;;;;;;0.50;0.50;;;;;;;23.64;25.22;98616.34;5069591;28;20257;-69
2023/04/02 10:41:36;;;;;;;2.40;0.80;;;;;;;23.50;25.07;98628.28;5072501;28;20182;-69
2023/04/02 10:44:27;;;;;;;2.27;1.00;;;;;;;22.91;25.82;98606.59;5072451;28;20230;-70
2023/04/02 10:47:10;;;;;;;1.67;0.80;;;;;;;23.21;26.02;98615.00;5072500;28;20238;-69
2023/04/02 10:49:43;;;;;;;0.70;0.70;;;;;;;23.40;26.04;98621.16;5072179;28;20674;-69
2023/04/02 10:52:16;;;;;;;0.77;0.77;;;;;;;23.46;26.20;98613.72;5072578;28;20238;-69
2023/04/02 10:54:47;;;;;;;1.73;0.73;;;;;;;23.47;25.44;98604.47;5072137;28;20565;-69
2023/04/02 10:57:26;;;;;;;0.60;0.60;;;;;;;23.33;25.38;98590.94;5072606;28;20190;-69
2023/04/02 10:59:56;;;;;;;0.73;0.73;;;;;;;23.43;24.28;98581.78;5072104;28;20611;-70
2023/04/02 11:02:37;;;;;;;1.50;0.70;;;;;;;23.75;24.35;98590.63;5072178;28;20268;-69
2023/04/02 11:05:15;;;;;;;1.50;0.63;;;;;;;23.75;23.86;98596.06;5072498;28;20227;-69
2023/04/02 11:07:53;;;;;;;0.87;0.70;;;;;;;23.63;24.06;98587.63;5071115;28;20241;-70
2023/04/02 11:10:21;;;;;;;9.00;1.57;;;;;;;23.80;24.22;98593.22;5052085;28;20182;-70
2023/04/02 11:12:56;;;;;;;5.73;0.70;;;;;;;23.44;24.75;98578.78;5051733;28;20199;-71
2023/04/02 11:15:24;;;;;;;0.70;0.70;;;;;;;23.59;25.03;98592.03;5052183;28;20285;-71
2023/04/02 11:17:51;;;;;;;0.80;0.80;;;;;;;23.42;24.94;98591.03;5052387;28;20217;-70
2023/04/02 11:20:43;;;;;;;0.80;0.80;;;;;;;23.68;24.52;98584.81;5051973;28;20193;-69
2023/04/02 11:23:12;;;;;;;1.10;1.10;;;;;;;23.70;24.77;98574.47;5051989;28;20255;-70
2023/04/02 11:25:41;;;;;;;1.07;1.00;;;;;;;23.89;24.71;98585.97;5060174;28;20188;-68
2023/04/02 11:28:26;;;;;;;0.97;0.97;;;;;;;23.67;24.45;98566.94;5071880;28;20287;-69
2023/04/02 11:30:54;;;;;;;0.70;0.67;;;;;;;23.49;24.92;98572.47;5071691;28;20188;-70
2023/04/02 11:33:39;;;;;;;1.17;0.97;;;;;;;23.59;25.20;98570.34;5071524;28;20240;-70
2023/04/02 11:36:47;;;;;;;1.80;0.90;;;;;;;23.70;24.96;98566.34;5071672;28;20762;-69
2023/04/02 11:39:52;;;;;;;1.30;0.90;;;;;;;23.76;25.17;98565.09;5069582;28;20198;-69
2023/04/02 11:42:30;;;;;;;0.90;0.77;;;;;;;23.79;25.27;98559.09;5069856;28;20273;-70
2023/04/02 11:45:21;;;;;;;1.80;1.23;;;;;;;23.90;24.77;98548.81;5071222;28;20182;-69
2023/04/02 11:48:21;;;;;;;5.43;3.83;;;;;;;24.04;24.77;98555.84;5071292;28;20219;-69
2023/04/02 11:50:48;;;;;;;1.97;1.73;;;;;;;24.03;24.85;98537.97;5071540;28;20185;-70
2023/04/02 11:53:21;;;;;;;6.80;1.60;;;;;;;23.79;25.55;98540.09;5072110;28;20260;-69
2023/04/02 11:56:16;;;;;;;3.03;2.83;;;;;;;23.51;25.37;98540.41;5075599;28;20187;-70
2023/04/02 11:58:58;;;;;;;2.03;1.93;;;;;;;23.59;25.54;98531.56;5075685;28;20190;-70
2023/04/02 12:01:44;;;;;;;4.03;2.50;;;;;;;23.60;25.15;98534.00;5054129;28;20194;-71